Time;durP1;ratioP1;P1;durP2;ratioP2;P2;SDS_P1;SDS_P2;PMS_P1;PMS_P2;Temp;Humidity;BMP_temperature;BMP_pressure;BME280_temperature;BME280_humidity;BME280_pressure;Samples;Min_cycle;Max_cycle;Signal;HPM_P1;HPM_P2
2022/07/17 00:00:45;;;;;;;2.85;0.88;;;12.20;99.90;;;;;;5058754;28;20047;-90
2022/07/17 00:03:12;;;;;;;4.03;1.00;;;12.30;99.90;;;;;;5081030;28;20035;-89
2022/07/17 00:05:38;;;;;;;2.28;0.93;;;12.30;99.90;;;;;;5080829;28;20047;-89
2022/07/17 00:08:08;;;;;;;6.10;0.73;;;12.40;99.90;;;;;;5098589;28;20043;-90
2022/07/17 00:10:36;;;;;;;5.45;1.25;;;12.90;99.90;;;;;;5109924;28;20047;-90
2022/07/17 00:13:03;;;;;;;3.33;1.20;;;12.20;99.90;;;;;;5090082;28;20043;-90
2022/07/17 00:15:29;;;;;;;2.80;1.08;;;12.10;99.90;;;;;;5091348;28;20112;-90
2022/07/17 00:17:55;;;;;;;2.05;0.77;;;12.10;99.90;;;;;;5089402;28;20134;-91
2022/07/17 00:20:23;;;;;;;2.10;0.80;;;12.10;99.90;;;;;;5074136;28;20165;-90
2022/07/17 00:22:49;;;;;;;3.53;0.88;;;12.10;99.90;;;;;;5090216;28;20062;-90
2022/07/17 00:25:15;;;;;;;5.05;0.90;;;11.60;99.90;;;;;;5073898;28;20487;-90
2022/07/17 00:27:40;;;;;;;5.32;1.10;;;13.00;99.90;;;;;;5073925;28;20052;-91
2022/07/17 00:30:07;;;;;;;6.15;1.77;;;12.00;99.90;;;;;;5089127;28;20051;-91
2022/07/17 00:32:33;;;;;;;5.35;1.13;;;12.00;99.90;;;;;;5074670;28;20075;-91
2022/07/17 00:34:59;;;;;;;1.98;0.88;;;12.10;99.90;;;;;;5072143;28;20048;-91
2022/07/17 00:37:24;;;;;;;5.65;1.15;;;12.50;99.90;;;;;;5090793;28;20047;-90
2022/07/17 00:39:50;;;;;;;6.40;1.00;;;11.90;99.90;;;;;;5055523;28;20035;-89
2022/07/17 00:42:17;;;;;;;7.70;1.20;;;12.30;99.90;;;;;;5072988;28;20047;-92
2022/07/17 00:44:43;;;;;;;1.95;1.15;;;12.50;99.90;;;;;;5054636;28;20040;-90
2022/07/17 00:47:19;;;;;;;3.53;1.42;;;11.90;99.90;;;;;;5087601;28;20043;-91
2022/07/17 00:49:45;;;;;;;4.30;1.25;;;12.30;99.90;;;;;;5089108;28;20039;-91
2022/07/17 00:52:12;;;;;;;4.45;0.85;;;11.80;99.90;;;;;;5087227;28;20040;-90
2022/07/17 00:54:39;;;;;;;2.40;0.95;;;11.80;99.90;;;;;;5072330;28;20043;-90
2022/07/17 00:57:08;;;;;;;3.88;1.08;;;11.80;99.90;;;;;;5071101;28;20079;-91
2022/07/17 00:59:35;;;;;;;4.78;1.27;;;12.30;99.90;;;;;;5088639;28;20376;-90
2022/07/17 01:02:05;;;;;;;5.13;1.33;;;11.80;99.90;;;;;;5088559;28;20047;-91
2022/07/17 01:04:33;;;;;;;5.25;1.30;;;11.70;99.90;;;;;;5070594;28;20049;-91
2022/07/17 01:06:59;;;;;;;3.83;1.13;;;11.70;99.90;;;;;;5072081;28;20040;-90
2022/07/17 01:09:25;;;;;;;4.20;1.20;;;10.80;99.90;;;;;;5086898;28;20043;-91
2022/07/17 01:11:51;;;;;;;2.50;1.00;;;11.70;99.90;;;;;;5088541;28;20039;-90
2022/07/17 01:14:17;;;;;;;4.05;1.00;;;12.40;99.90;;;;;;5070283;28;20101;-89
2022/07/17 01:16:43;;;;;;;3.25;0.85;;;11.70;99.90;;;;;;5071097;28;20130;-89
2022/07/17 01:19:13;;;;;;;3.47;1.17;;;11.90;99.90;;;;;;5071824;28;20447;-90
2022/07/17 01:21:48;;;;;;;3.55;1.20;;;11.70;99.90;;;;;;5086741;28;20039;-90
2022/07/17 01:24:14;;;;;;;6.78;1.00;;;12.20;99.90;;;;;;5088732;28;20080;-90
2022/07/17 01:26:49;;;;;;;5.57;1.05;;;11.60;99.90;;;;;;5069617;28;20083;-90
2022/07/17 01:29:17;;;;;;;5.53;1.45;;;11.60;99.90;;;;;;5072299;28;20469;-89
2022/07/17 01:31:42;;;;;;;2.10;1.38;;;11.60;99.90;;;;;;5087355;28;20051;-90
2022/07/17 01:34:12;;;;;;;2.85;1.20;;;12.30;99.90;;;;;;5087432;28;20043;-91
2022/07/17 01:36:38;;;;;;;3.08;1.30;;;12.50;99.90;;;;;;5088239;28;20479;-90
2022/07/17 01:39:04;;;;;;;5.85;1.50;;;12.40;99.90;;;;;;5086342;28;20083;-90
2022/07/17 01:41:30;;;;;;;2.35;1.20;;;12.60;99.90;;;;;;5088233;28;20044;-90
2022/07/17 01:43:57;;;;;;;6.05;1.80;;;12.50;99.90;;;;;;5086762;28;20089;-90
2022/07/17 01:46:22;;;;;;;4.03;1.50;;;11.50;99.90;;;;;;5088519;28;20388;-89
2022/07/17 01:48:48;;;;;;;3.38;1.30;;;11.50;99.90;;;;;;5087064;28;20068;-90
2022/07/17 01:51:14;;;;;;;3.95;1.27;;;11.50;99.90;;;;;;5087652;28;20840;-90
2022/07/17 01:53:39;;;;;;;4.65;1.35;;;12.20;99.90;;;;;;5054445;28;20513;-90
2022/07/17 01:56:05;;;;;;;3.70;1.30;;;12.30;99.90;;;;;;5052911;28;20096;-90
2022/07/17 01:58:31;;;;;;;2.22;1.00;;;11.50;99.90;;;;;;5055797;28;20123;-90
2022/07/17 02:00:57;;;;;;;2.10;1.30;;;12.40;99.90;;;;;;5072625;28;20051;-90
2022/07/17 02:03:22;;;;;;;1.80;1.20;;;12.40;99.90;;;;;;5056277;28;20123;-91
2022/07/17 02:05:48;;;;;;;6.38;1.20;;;11.40;99.90;;;;;;5069264;28;20532;-90
2022/07/17 02:08:14;;;;;;;8.10;1.90;;;11.40;99.90;;;;;;5071048;28;20048;-90
2022/07/17 02:10:40;;;;;;;4.32;1.02;;;12.40;99.90;;;;;;5071047;28;20502;-90
2022/07/17 02:13:05;;;;;;;7.05;1.50;;;11.60;99.90;;;;;;5086167;28;20077;-91
2022/07/17 02:15:31;;;;;;;4.25;1.20;;;11.30;99.90;;;;;;5071677;28;20044;-90
2022/07/17 02:17:57;;;;;;;6.88;1.42;;;12.30;99.90;;;;;;5102719;28;20502;-90
2022/07/17 02:20:23;;;;;;;4.07;2.33;;;11.80;99.90;;;;;;5071685;28;20440;-90
2022/07/17 02:22:49;;;;;;;6.20;1.13;;;12.40;99.90;;;;;;5068805;28;20051;-90
2022/07/17 02:25:15;;;;;;;3.92;1.27;;;12.20;99.90;;;;;;5071655;28;20039;-90
2022/07/17 02:27:41;;;;;;;3.53;1.50;;;11.30;99.90;;;;;;5070015;28;20130;-90
2022/07/17 02:30:10;;;;;;;3.30;1.10;;;11.80;99.90;;;;;;5052560;28;20132;-91
2022/07/17 02:32:36;;;;;;;2.67;1.27;;;11.30;99.90;;;;;;5071455;28;20134;-90
2022/07/17 02:35:02;;;;;;;6.57;1.67;;;11.70;99.90;;;;;;5068823;28;20127;-91
2022/07/17 02:37:28;;;;;;;4.95;1.52;;;11.30;99.90;;;;;;5070980;28;20043;-89
2022/07/17 02:39:54;;;;;;;5.10;1.83;;;11.30;99.90;;;;;;5069004;28;20044;-89
2022/07/17 02:42:25;;;;;;;2.65;1.10;;;11.30;99.90;;;;;;5087243;28;20062;-90
2022/07/17 02:44:52;;;;;;;4.57;1.73;;;12.40;99.90;;;;;;5070582;28;20075;-90
2022/07/17 02:47:23;;;;;;;6.25;2.35;;;12.40;99.90;;;;;;5070107;28;20126;-90
2022/07/17 02:49:49;;;;;;;9.18;1.58;;;11.20;99.90;;;;;;5087619;28;20431;-90
2022/07/17 02:52:15;;;;;;;5.18;1.15;;;11.20;99.90;;;;;;5068603;28;20054;-90
2022/07/17 02:54:41;;;;;;;4.93;1.45;;;11.80;99.90;;;;;;5087535;28;20126;-90
2022/07/17 02:57:07;;;;;;;3.50;1.23;;;11.60;99.90;;;;;;5069129;28;20042;-90
2022/07/17 02:59:32;;;;;;;6.47;1.95;;;11.10;99.90;;;;;;5071172;28;20066;-90
2022/07/17 03:01:58;;;;;;;4.80;1.70;;;11.80;99.90;;;;;;5085809;28;20380;-90
2022/07/17 03:04:24;;;;;;;5.57;1.60;;;12.20;99.90;;;;;;5053282;28;20047;-90
2022/07/17 03:06:49;;;;;;;5.40;1.45;;;11.10;99.90;;;;;;5073860;28;20084;-90
2022/07/17 03:09:15;;;;;;;2.75;1.50;;;11.10;99.90;;;;;;5078393;28;20486;-90
2022/07/17 03:11:43;;;;;;;6.72;1.52;;;11.00;99.90;;;;;;5080974;28;20043;-90
2022/07/17 03:14:09;;;;;;;6.15;1.48;;;11.10;99.90;;;;;;5078096;28;20048;-90
2022/07/17 03:16:35;;;;;;;4.00;1.55;;;11.40;99.90;;;;;;5080599;28;20043;-90
2022/07/17 03:19:01;;;;;;;3.90;1.50;;;11.00;99.90;;;;;;5077783;28;20050;-90
2022/07/17 03:21:27;;;;;;;1.95;1.13;;;11.00;99.90;;;;;;5063072;28;20040;-91
2022/07/17 03:23:52;;;;;;;4.65;1.67;;;11.10;99.90;;;;;;5078874;28;20039;-90
2022/07/17 03:26:18;;;;;;;2.65;1.20;;;12.10;99.90;;;;;;5062635;28;20407;-90
2022/07/17 03:28:44;;;;;;;5.15;1.35;;;11.10;99.90;;;;;;5095766;28;20063;-90
2022/07/17 03:31:09;;;;;;;6.85;1.63;;;11.60;99.90;;;;;;5058899;28;20054;-90
2022/07/17 03:33:36;;;;;;;5.55;1.48;;;11.10;99.90;;;;;;5077773;28;20487;-90
2022/07/17 03:36:02;;;;;;;5.53;2.00;;;11.10;99.90;;;;;;5074983;28;20040;-90
2022/07/17 03:38:28;;;;;;;6.68;1.33;;;11.20;99.90;;;;;;5060915;28;20050;-91
2022/07/17 03:40:54;;;;;;;5.47;1.80;;;11.90;99.90;;;;;;5058846;28;20045;-90
2022/07/17 03:43:19;;;;;;;3.38;1.40;;;11.80;99.90;;;;;;5060673;28;20043;-90
2022/07/17 03:45:45;;;;;;;5.38;1.70;;;11.30;99.90;;;;;;5093309;28;20079;-90
2022/07/17 03:48:11;;;;;;;2.70;1.30;;;11.80;99.90;;;;;;5059606;28;20486;-90
2022/07/17 03:50:37;;;;;;;5.63;1.40;;;12.10;99.90;;;;;;5077747;28;20043;-90
2022/07/17 03:53:02;;;;;;;4.22;1.20;;;11.40;99.90;;;;;;5077796;28;20086;-91
2022/07/17 03:55:28;;;;;;;4.35;1.48;;;12.10;99.90;;;;;;5084028;28;20044;-90
2022/07/17 03:57:54;;;;;;;3.35;1.10;;;11.50;99.90;;;;;;5058477;28;20043;-90
2022/07/17 04:00:20;;;;;;;4.38;1.30;;;11.60;99.90;;;;;;5061091;28;20043;-90
2022/07/17 04:02:45;;;;;;;5.38;2.00;;;11.70;99.90;;;;;;5074961;28;20406;-90
2022/07/17 04:05:11;;;;;;;3.90;1.40;;;11.70;99.90;;;;;;5076455;28;20047;-90
2022/07/17 04:07:41;;;;;;;3.85;1.42;;;11.70;99.90;;;;;;5076115;28;20043;-90
2022/07/17 04:10:10;;;;;;;3.92;1.30;;;11.80;99.90;;;;;;5091995;28;20738;-90
2022/07/17 04:12:36;;;;;;;8.10;1.45;;;11.80;99.90;;;;;;5093557;28;20075;-90
2022/07/17 04:15:04;;;;;;;3.80;2.13;;;11.90;99.90;;;;;;5078093;28;20047;-90
2022/07/17 04:17:29;;;;;;;6.50;1.77;;;12.00;99.90;;;;;;5097192;28;20058;-90
2022/07/17 04:19:55;;;;;;;5.80;1.58;;;12.10;99.90;;;;;;5077696;28;20047;-89
2022/07/17 04:22:21;;;;;;;4.70;1.30;;;12.10;99.90;;;;;;5064156;28;20047;-90
2022/07/17 04:24:47;;;;;;;4.55;1.23;;;12.20;99.90;;;;;;5078814;28;20051;-89
2022/07/17 04:27:13;;;;;;;2.35;0.70;;;12.30;99.90;;;;;;5095908;28;20044;-90
2022/07/17 04:29:39;;;;;;;6.10;1.35;;;12.50;99.90;;;;;;5098056;27;20044;-90
2022/07/17 04:32:05;;;;;;;4.63;1.20;;;12.50;99.90;;;;;;5082005;27;20096;-89
2022/07/17 04:34:32;;;;;;;3.45;0.82;;;11.70;99.90;;;;;;5100805;27;20126;-90
2022/07/17 04:36:58;;;;;;;4.32;1.23;;;12.60;99.90;;;;;;5115541;27;20058;-90
2022/07/17 04:39:24;;;;;;;7.18;1.70;;;13.20;99.90;;;;;;5083842;27;20058;-90
2022/07/17 04:41:50;;;;;;;2.05;0.80;;;12.70;99.90;;;;;;5065141;27;20580;-90
2022/07/17 04:44:16;;;;;;;2.95;0.80;;;12.80;99.90;;;;;;5083724;27;20047;-90
2022/07/17 04:46:42;;;;;;;7.57;0.93;;;12.90;99.90;;;;;;5098826;27;20073;-91
2022/07/17 04:49:07;;;;;;;4.80;1.20;;;12.90;99.90;;;;;;5098695;27;20113;-90
2022/07/17 04:51:33;;;;;;;8.40;1.10;;;12.90;99.90;;;;;;5059189;27;20031;-90
2022/07/17 04:53:59;;;;;;;5.13;1.40;;;13.00;99.90;;;;;;5057225;27;20440;-91
2022/07/17 04:56:25;;;;;;;5.45;1.55;;;14.00;99.90;;;;;;5058998;27;20062;-90
2022/07/17 04:58:51;;;;;;;5.25;1.25;;;13.10;99.90;;;;;;5073847;27;20380;-90
2022/07/17 05:01:16;;;;;;;3.92;1.38;;;14.10;99.90;;;;;;5075293;27;20039;-90
2022/07/17 05:03:42;;;;;;;6.20;1.30;;;13.10;99.90;;;;;;5091523;27;20059;-91
2022/07/17 05:06:09;;;;;;;9.38;1.52;;;13.20;99.90;;;;;;5075016;27;20043;-90
2022/07/17 05:08:35;;;;;;;9.52;1.75;;;13.20;99.90;;;;;;5091631;27;20047;-91
2022/07/17 05:11:01;;;;;;;8.15;1.15;;;13.20;99.90;;;;;;5090887;27;20043;-91
2022/07/17 05:13:27;;;;;;;5.55;1.20;;;13.80;99.90;;;;;;5075332;27;20086;-90
2022/07/17 05:15:52;;;;;;;8.73;1.30;;;13.20;99.90;;;;;;5056797;27;20398;-90
2022/07/17 05:18:18;;;;;;;3.85;1.38;;;13.30;99.90;;;;;;5075484;27;20046;-90
2022/07/17 05:20:44;;;;;;;4.35;1.13;;;13.40;99.90;;;;;;5056820;27;20078;-90
2022/07/17 05:23:10;;;;;;;6.45;2.28;;;13.80;99.90;;;;;;5091858;27;20066;-89
2022/07/17 05:25:36;;;;;;;4.45;1.15;;;14.40;99.90;;;;;;5091069;27;20039;-90
2022/07/17 05:28:02;;;;;;;4.80;1.02;;;13.50;99.90;;;;;;5074231;27;20043;-91
2022/07/17 05:30:28;;;;;;;1.25;0.80;;;13.50;99.90;;;;;;5074328;27;20134;-90
2022/07/17 05:32:55;;;;;;;2.60;0.77;;;13.60;99.90;;;;;;5073751;27;20051;-89
2022/07/17 05:35:21;;;;;;;5.50;1.33;;;14.10;99.90;;;;;;5058246;27;20039;-90
2022/07/17 05:37:47;;;;;;;4.90;1.13;;;13.80;99.90;;;;;;5106940;27;20045;-90
2022/07/17 05:40:12;;;;;;;4.97;1.33;;;13.80;99.90;;;;;;5074876;27;20035;-90
2022/07/17 05:42:38;;;;;;;3.45;0.80;;;13.90;99.90;;;;;;5091158;27;20039;-91
2022/07/17 05:45:04;;;;;;;2.13;0.75;;;14.00;99.90;;;;;;5093650;27;20031;-88
2022/07/17 05:47:30;;;;;;;5.80;1.25;;;14.20;99.90;;;;;;5094863;27;20031;-88
2022/07/17 05:49:56;;;;;;;3.92;0.82;;;14.30;99.90;;;;;;5074175;27;20486;-88
2022/07/17 05:52:22;;;;;;;2.05;0.88;;;14.30;99.90;;;;;;5091493;27;20064;-88
2022/07/17 05:54:48;;;;;;;3.08;0.90;;;15.20;99.90;;;;;;5073057;28;20047;-89
2022/07/17 05:57:14;;;;;;;4.68;0.95;;;14.50;99.90;;;;;;5074635;27;20172;-89
2022/07/17 05:59:40;;;;;;;6.90;1.10;;;14.60;99.90;;;;;;5056827;27;20084;-88
2022/07/17 06:02:06;;;;;;;4.13;0.98;;;14.70;99.90;;;;;;5074247;28;20046;-90
2022/07/17 06:04:32;;;;;;;3.33;1.20;;;15.70;99.90;;;;;;5107923;28;20031;-89
2022/07/17 06:06:57;;;;;;;2.67;0.70;;;14.90;99.90;;;;;;5089896;28;20091;-89
2022/07/17 06:09:23;;;;;;;4.50;0.65;;;16.00;99.90;;;;;;5057608;28;20032;-90
2022/07/17 06:11:49;;;;;;;7.88;1.10;;;15.10;99.90;;;;;;5056693;28;20042;-89
2022/07/17 06:14:15;;;;;;;3.08;0.70;;;15.20;99.90;;;;;;5074520;28;20509;-90
2022/07/17 06:16:40;;;;;;;3.25;0.60;;;15.50;99.90;;;;;;5056492;28;20039;-90
2022/07/17 06:19:06;;;;;;;7.53;0.90;;;15.40;99.90;;;;;;5074788;28;20081;-90
2022/07/17 06:21:32;;;;;;;5.80;1.00;;;15.50;99.90;;;;;;5090870;28;20425;-90
2022/07/17 06:23:58;;;;;;;4.28;1.08;;;16.10;99.90;;;;;;5090413;28;20044;-90
2022/07/17 06:26:23;;;;;;;4.60;0.88;;;15.80;99.90;;;;;;5057596;28;20078;-90
2022/07/17 06:28:52;;;;;;;3.50;0.43;;;16.00;99.90;;;;;;5072974;28;20082;-88
2022/07/17 06:31:18;;;;;;;3.92;0.80;;;16.20;99.90;;;;;;5090478;27;20055;-88
2022/07/17 06:33:43;;;;;;;2.85;0.73;;;16.40;99.90;;;;;;5089495;28;20406;-89
2022/07/17 06:36:09;;;;;;;4.22;0.80;;;16.60;99.90;;;;;;5057442;28;20043;-88
2022/07/17 06:38:35;;;;;;;1.52;0.50;;;16.70;99.90;;;;;;5073489;28;20036;-87
2022/07/17 06:41:02;;;;;;;1.75;0.63;;;16.70;99.90;;;;;;5092002;28;20090;-88
2022/07/17 06:43:28;;;;;;;4.70;0.60;;;16.70;99.90;;;;;;5092617;27;20180;-88
2022/07/17 06:45:54;;;;;;;4.45;0.60;;;16.70;99.90;;;;;;5093421;27;20133;-89
2022/07/17 06:48:23;;;;;;;5.50;0.75;;;16.70;99.90;;;;;;5078814;27;20039;-89
2022/07/17 06:50:48;;;;;;;2.58;0.60;;;16.70;99.90;;;;;;5077072;27;20046;-89
2022/07/17 06:53:17;;;;;;;8.23;0.68;;;16.60;99.90;;;;;;5062689;27;20050;-89
2022/07/17 06:55:43;;;;;;;2.45;0.50;;;16.60;99.90;;;;;;5093482;27;20039;-88
2022/07/17 06:58:09;;;;;;;2.83;0.82;;;16.60;99.90;;;;;;5077579;27;20138;-90
2022/07/17 07:00:34;;;;;;;1.92;0.70;;;17.60;99.90;;;;;;5094113;27;20050;-91
2022/07/17 07:03:01;;;;;;;4.68;0.80;;;16.70;99.90;;;;;;5059664;27;20044;-89
2022/07/17 07:05:26;;;;;;;5.68;0.75;;;16.70;99.90;;;;;;5077559;27;20035;-89
2022/07/17 07:07:52;;;;;;;2.97;1.13;;;16.80;99.90;;;;;;5059505;27;20070;-89
2022/07/17 07:10:18;;;;;;;2.85;0.65;;;16.80;99.90;;;;;;5078406;27;20126;-90
2022/07/17 07:12:44;;;;;;;4.78;1.30;;;16.90;99.90;;;;;;5093107;27;20486;-89
2022/07/17 07:15:10;;;;;;;8.80;1.08;;;16.90;99.90;;;;;;5096187;27;20043;-93
2022/07/17 07:17:36;;;;;;;4.55;1.13;;;17.00;99.90;;;;;;5079323;27;20076;-95
2022/07/17 07:20:05;;;;;;;1.95;0.55;;;17.10;99.90;;;;;;5077188;27;20043;-92
2022/07/17 07:22:32;;;;;;;3.50;0.63;;;17.20;99.90;;;;;;5095268;27;20035;-93
2022/07/17 07:24:58;;;;;;;1.48;0.60;;;18.30;99.90;;;;;;5093767;27;20126;-92
2022/07/17 07:27:24;;;;;;;6.47;0.70;;;17.40;99.90;;;;;;5078612;27;20129;-93
2022/07/17 07:29:50;;;;;;;5.30;1.13;;;17.50;99.90;;;;;;5076447;27;20519;-94
2022/07/17 07:32:15;;;;;;;5.90;0.65;;;17.50;99.90;;;;;;5077783;27;20043;-94
2022/07/17 07:34:41;;;;;;;8.15;0.93;;;17.70;99.90;;;;;;5059851;27;20050;-89
2022/07/17 07:37:07;;;;;;;6.68;0.80;;;17.80;99.90;;;;;;5093221;27;20539;-89
2022/07/17 07:39:33;;;;;;;9.05;1.00;;;17.80;99.90;;;;;;5096814;27;20505;-88
2022/07/17 07:41:59;;;;;;;3.40;0.57;;;17.90;99.90;;;;;;5079378;27;20074;-88
2022/07/17 07:44:25;;;;;;;6.00;0.93;;;17.90;99.90;;;;;;5094665;27;20054;-88
2022/07/17 07:46:51;;;;;;;7.50;1.42;;;18.00;99.90;;;;;;5108676;27;20054;-87
2022/07/17 07:49:17;;;;;;;5.30;0.90;;;18.00;99.90;;;;;;5093571;27;20039;-88
2022/07/17 07:51:43;;;;;;;3.97;0.63;;;18.00;99.90;;;;;;5074939;27;20035;-88
2022/07/17 07:54:09;;;;;;;2.80;0.57;;;18.00;99.90;;;;;;5075699;27;20054;-88
2022/07/17 07:56:36;;;;;;;2.83;0.50;;;18.00;99.90;;;;;;5074907;27;20430;-88
2022/07/17 07:59:02;;;;;;;4.82;0.70;;;18.00;99.90;;;;;;5108577;27;20150;-88
2022/07/17 08:01:28;;;;;;;6.28;0.68;;;18.00;99.90;;;;;;5092492;27;20043;-88
2022/07/17 08:03:54;;;;;;;5.30;0.73;;;18.00;99.90;;;;;;5074800;27;20049;-88
2022/07/17 08:06:19;;;;;;;4.35;0.50;;;17.90;99.90;;;;;;5076336;27;20047;-88
2022/07/17 08:08:45;;;;;;;8.80;0.88;;;17.80;99.90;;;;;;5108332;27;20049;-88
2022/07/17 08:11:11;;;;;;;5.55;0.47;;;17.80;99.90;;;;;;5093106;27;20051;-89
2022/07/17 08:13:37;;;;;;;9.18;0.95;;;17.90;99.90;;;;;;5092151;27;20053;-89
2022/07/17 08:16:02;;;;;;;8.77;0.63;;;18.00;99.90;;;;;;5091934;27;20047;-88
2022/07/17 08:18:28;;;;;;;2.55;0.52;;;18.20;99.90;;;;;;5092791;27;20488;-89
2022/07/17 08:20:54;;;;;;;3.30;0.70;;;18.30;99.90;;;;;;5057767;27;20125;-88
2022/07/17 08:23:20;;;;;;;4.50;0.52;;;18.40;99.90;;;;;;5092396;27;20043;-89
2022/07/17 08:25:47;;;;;;;5.32;0.75;;;18.50;99.90;;;;;;5074020;27;20084;-88
2022/07/17 08:28:14;;;;;;;3.53;0.70;;;18.60;99.90;;;;;;5075846;27;20047;-88
2022/07/17 08:30:40;;;;;;;3.13;0.35;;;18.70;99.90;;;;;;5107648;27;20058;-89
2022/07/17 08:33:08;;;;;;;4.43;0.70;;;19.10;99.90;;;;;;5057980;27;20039;-88
2022/07/17 08:35:35;;;;;;;3.13;0.60;;;18.80;99.90;;;;;;5108899;27;20486;-88
2022/07/17 08:38:01;;;;;;;2.20;0.45;;;19.00;99.90;;;;;;5090767;27;20197;-89
2022/07/17 08:40:29;;;;;;;4.45;0.77;;;19.10;99.90;;;;;;5091673;27;20046;-89
2022/07/17 08:42:57;;;;;;;2.97;0.70;;;19.20;99.90;;;;;;5107432;27;20490;-87
2022/07/17 08:45:23;;;;;;;6.35;0.50;;;19.30;99.90;;;;;;5092076;27;20043;-87
2022/07/17 08:47:54;;;;;;;4.05;0.65;;;19.40;99.90;;;;;;5090967;27;20133;-88
2022/07/17 08:50:32;;;;;;;4.70;0.43;;;19.50;99.90;;;;;;5091487;27;20074;-88
2022/07/17 08:52:58;;;;;;;2.60;0.50;;;19.60;99.90;;;;;;5091485;27;20138;-88
2022/07/17 08:55:24;;;;;;;5.60;0.80;;;19.70;99.90;;;;;;5091128;27;20075;-87
2022/07/17 08:57:50;;;;;;;2.45;0.50;;;19.90;99.90;;;;;;5108708;27;20465;-87
2022/07/17 09:00:18;;;;;;;3.80;0.30;;;19.90;99.90;;;;;;5107908;27;20134;-87
2022/07/17 09:02:57;;;;;;;3.20;0.60;;;19.90;99.90;;;;;;5091823;27;20039;-87
2022/07/17 09:05:25;;;;;;;4.22;0.60;;;20.10;99.90;;;;;;5090655;27;20042;-89
2022/07/17 09:07:51;;;;;;;3.00;0.60;;;20.00;99.90;;;;;;5090524;27;20027;-88
2022/07/17 09:10:16;;;;;;;3.28;0.40;;;20.00;99.90;;;;;;5108347;27;20036;-87
2022/07/17 09:12:42;;;;;;;2.05;0.50;;;20.00;99.90;;;;;;5108273;27;20130;-89
2022/07/17 09:15:18;;;;;;;2.08;0.55;;;20.00;99.90;;;;;;5058271;27;20762;-86
2022/07/17 09:17:52;;;;;;;2.85;0.50;;;20.10;99.90;;;;;;5090659;27;20035;-86
2022/07/17 09:20:20;;;;;;;3.75;0.68;;;20.20;99.90;;;;;;5108531;27;20113;-85
2022/07/17 09:22:59;;;;;;;5.63;1.15;;;20.30;99.90;;;;;;5108292;27;20090;-86
2022/07/17 09:25:36;;;;;;;2.15;0.40;;;20.40;99.90;;;;;;5107292;27;20047;-86
2022/07/17 09:28:04;;;;;;;4.03;0.82;;;20.60;99.90;;;;;;5108639;27;20042;-86
2022/07/17 09:30:31;;;;;;;4.93;1.00;;;20.80;99.90;;;;;;5086996;28;20051;-86
2022/07/17 09:32:58;;;;;;;3.67;0.70;;;20.90;99.90;;;;;;5072336;28;20394;-86
2022/07/17 09:35:24;;;;;;;6.55;0.60;;;20.90;99.90;;;;;;5108976;28;20079;-86
2022/07/17 09:37:54;;;;;;;2.47;0.40;;;21.00;99.90;;;;;;5107980;28;20046;-86
2022/07/17 09:43:07;;;;;;;1.90;0.47;;;21.20;99.90;;;;;;5106814;28;20054;-86
2022/07/17 09:45:35;;;;;;;2.58;0.30;;;21.20;99.90;;;;;;5092162;28;20074;-87
2022/07/17 09:48:02;;;;;;;2.10;0.50;;;21.20;99.90;;;;;;5087678;28;20080;-86
2022/07/17 09:50:28;;;;;;;4.55;1.00;;;21.30;99.90;;;;;;5105090;28;20543;-87
2022/07/17 09:52:56;;;;;;;4.25;0.63;;;21.50;99.90;;;;;;5073863;28;20047;-87
2022/07/17 09:55:30;;;;;;;1.85;0.50;;;21.70;99.90;;;;;;5090298;28;20044;-88
2022/07/17 09:57:59;;;;;;;1.95;0.30;;;21.90;99.90;;;;;;5091529;28;20270;-87
2022/07/17 10:00:25;;;;;;;1.67;0.32;;;22.10;99.90;;;;;;5074626;28;20368;-87
2022/07/17 10:02:52;;;;;;;2.15;1.02;;;22.20;99.80;;;;;;5111594;28;20127;-88
2022/07/17 10:05:18;;;;;;;1.00;0.40;;;22.30;99.80;;;;;;5091196;28;20073;-87
2022/07/17 10:07:47;;;;;;;5.53;0.88;;;22.50;99.20;;;;;;5076904;28;20039;-87
2022/07/17 10:10:14;;;;;;;4.18;0.73;;;22.70;99.20;;;;;;5091060;28;20050;-87
2022/07/17 10:12:43;;;;;;;6.03;0.60;;;22.80;99.10;;;;;;5103690;28;20035;-87
2022/07/17 10:15:10;;;;;;;4.22;0.50;;;23.00;97.30;;;;;;5105230;28;20100;-90
2022/07/17 10:17:36;;;;;;;0.85;0.40;;;23.00;97.40;;;;;;5071838;28;20543;-87
2022/07/17 10:20:05;;;;;;;3.83;0.75;;;23.00;97.30;;;;;;5094414;28;20040;-85
2022/07/17 10:22:45;;;;;;;5.43;0.93;;;23.00;96.90;;;;;;5094186;28;20117;-86
2022/07/17 10:25:16;;;;;;;1.55;0.47;;;23.00;97.10;;;;;;5091833;28;20052;-88
2022/07/17 10:27:53;;;;;;;1.98;0.47;;;23.70;96.90;;;;;;5109481;28;20490;-87
2022/07/17 10:30:28;;;;;;;2.00;0.70;;;23.00;95.80;;;;;;5092593;28;20519;-87
2022/07/17 10:32:58;;;;;;;4.60;0.70;;;23.00;96.30;;;;;;5092124;28;20043;-87
2022/07/17 10:35:24;;;;;;;1.38;0.57;;;23.10;97.10;;;;;;5090826;28;20042;-88
2022/07/17 10:37:50;;;;;;;1.73;0.30;;;23.30;95.90;;;;;;5090921;28;20043;-90
2022/07/17 10:40:21;;;;;;;2.20;0.65;;;23.30;94.60;;;;;;5074404;28;20040;-89
2022/07/17 10:43:07;;;;;;;4.37;0.53;;;23.10;93.80;;;;;;5090766;28;20044;-90
2022/07/17 10:45:35;;;;;;;2.92;0.57;;;23.10;92.80;;;;;;5092123;28;20039;-91
2022/07/17 10:48:07;;;;;;;4.63;0.70;;;23.00;94.00;;;;;;5091713;28;20040;-87
2022/07/17 10:50:45;;;;;;;3.33;0.57;;;23.00;94.60;;;;;;5108700;28;20039;-95
2022/07/17 10:53:24;;;;;;;2.95;0.63;;;23.10;94.50;;;;;;5092145;28;20059;-93
2022/07/17 10:56:12;;;;;;;1.95;0.68;;;23.20;94.60;;;;;;5107621;28;20048;-95
2022/07/17 10:58:43;;;;;;;3.85;0.47;;;23.30;91.90;;;;;;5109229;28;20032;-94
2022/07/17 11:01:12;;;;;;;2.03;0.63;;;23.40;93.00;;;;;;5091261;28;20131;-93
2022/07/17 11:03:45;;;;;;;5.28;0.68;;;23.50;92.40;;;;;;5091451;28;20035;-94
2022/07/17 11:06:20;;;;;;;2.33;0.70;;;23.60;93.00;;;;;;5108871;28;20040;-94
2022/07/17 11:08:56;;;;;;;3.28;0.70;;;23.70;92.60;;;;;;5114121;28;20407;-93
2022/07/17 11:11:46;;;;;;;4.97;0.77;;;23.90;92.90;;;;;;5098672;28;20394;-93
2022/07/17 11:14:16;;;;;;;3.30;0.40;;;24.10;90.60;;;;;;5097844;28;20761;-94
2022/07/17 11:16:49;;;;;;;2.80;0.43;;;24.10;90.50;;;;;;5098053;28;20089;-94
2022/07/17 11:19:27;;;;;;;0.98;0.60;;;24.10;86.30;;;;;;5098175;28;20047;-94
2022/07/17 11:21:54;;;;;;;3.15;0.80;;;24.20;82.60;;;;;;5096987;28;20044;-94
2022/07/17 11:24:20;;;;;;;2.42;0.50;;;23.90;83.90;;;;;;5062666;28;20039;-93
2022/07/17 11:26:50;;;;;;;3.22;0.63;;;24.10;84.20;;;;;;5095421;28;20132;-93
2022/07/17 11:29:16;;;;;;;3.17;0.38;;;24.30;81.90;;;;;;5094476;28;20107;-93
2022/07/17 11:31:43;;;;;;;2.47;0.65;;;24.90;80.70;;;;;;5079000;28;20048;-94
2022/07/17 11:34:11;;;;;;;1.65;0.52;;;24.40;80.50;;;;;;5088412;28;20108;-94
2022/07/17 11:36:42;;;;;;;1.20;0.43;;;24.30;82.70;;;;;;5099679;28;20507;-94
2022/07/17 11:39:15;;;;;;;2.03;0.60;;;24.40;80.30;;;;;;5097339;28;20192;-91
2022/07/17 11:41:48;;;;;;;5.47;0.47;;;24.50;81.00;;;;;;5099269;28;20082;-95
2022/07/17 11:44:20;;;;;;;2.63;0.60;;;24.50;81.00;;;;;;5099344;28;20050;-93
2022/07/17 11:46:48;;;;;;;1.58;0.55;;;25.10;78.60;;;;;;5099653;28;20073;-94
2022/07/17 11:49:43;;;;;;;0.85;0.40;;;24.60;79.00;;;;;;5100361;28;20097;-94
2022/07/17 11:52:13;;;;;;;1.92;0.63;;;24.60;76.10;;;;;;5061843;28;20054;-93
2022/07/17 11:54:56;;;;;;;1.30;0.70;;;24.60;78.80;;;;;;5099403;28;20043;-93
2022/07/17 11:57:25;;;;;;;3.55;0.80;;;24.70;80.70;;;;;;5100013;28;20059;-92
2022/07/17 11:59:52;;;;;;;3.03;0.45;;;24.80;81.50;;;;;;5098220;28;20043;-92
2022/07/17 12:02:22;;;;;;;1.88;0.65;;;25.00;79.30;;;;;;5083620;28;20048;-93
2022/07/17 12:05:07;;;;;;;1.92;0.50;;;25.30;79.00;;;;;;5081908;28;20122;-94
2022/07/17 12:07:58;;;;;;;1.73;0.70;;;25.40;77.20;;;;;;5099014;28;20131;-94
2022/07/17 12:10:28;;;;;;;2.28;0.80;;;25.10;75.50;;;;;;5097954;28;20032;-93
2022/07/17 12:12:58;;;;;;;6.55;0.90;;;25.10;75.80;;;;;;5096921;28;20040;-92
2022/07/17 12:15:45;;;;;;;4.32;0.75;;;25.30;75.00;;;;;;5097654;28;20055;-94
2022/07/17 12:18:26;;;;;;;0.98;0.57;;;25.30;70.50;;;;;;5095764;28;20568;-94
2022/07/17 12:20:54;;;;;;;2.37;0.60;;;25.30;70.80;;;;;;5098034;28;20326;-93
2022/07/17 12:23:36;;;;;;;5.50;0.90;;;25.40;73.50;;;;;;5078412;28;20298;-94
2022/07/17 12:26:06;;;;;;;;;;;25.50;73.20;;;;;;5113923;28;20658;-93
2022/07/17 12:28:33;;;;;;;4.00;1.02;;;25.60;73.00;;;;;;5097487;28;20375;-92
2022/07/17 12:30:59;;;;;;;2.47;0.80;;;25.80;75.20;;;;;;5095723;28;20083;-93
2022/07/17 12:33:25;;;;;;;1.30;0.77;;;25.90;72.20;;;;;;5081440;28;20062;-94
2022/07/17 12:35:51;;;;;;;2.80;1.25;;;25.90;68.20;;;;;;5095646;28;20035;-93
2022/07/17 12:38:17;;;;;;;2.30;0.80;;;25.90;67.90;;;;;;5097556;28;20043;-93
2022/07/17 12:40:42;;;;;;;2.17;1.05;;;26.00;67.50;;;;;;5078576;28;20088;-93
2022/07/17 12:43:11;;;;;;;2.00;1.08;;;26.40;65.90;;;;;;5091904;28;20047;-90
2022/07/17 12:45:37;;;;;;;2.33;1.20;;;26.10;65.30;;;;;;5072887;28;20505;-94
2022/07/17 12:48:03;;;;;;;2.97;1.60;;;26.10;64.00;;;;;;5055807;28;20039;-94
2022/07/17 12:50:28;;;;;;;1.80;1.40;;;26.20;62.70;;;;;;5073631;28;20035;-94
2022/07/17 12:52:54;;;;;;;3.97;1.30;;;26.20;61.90;;;;;;5054692;28;20062;-94